Hickory Ridge, AR (72347)

5:07 PM CST on November 20, 2014 (GMT -0600)
Boward and Wofford | Change Station
CLOSE
Current Station
Personal Weather Station
Location: Waldenburg, AR
Elevation: 243 ft
Nearby Weather Stations

Elev 243 ft 35.57 °N, 90.90 °W | Updated 7 minutes ago

Mostly Cloudy
Mostly Cloudy
49.7 °F
Feels Like 50 °F
N
3.0
Wind Variable Wind from East
Gusts 6.0 mph

Today
High -- | Low -- °F
--% Chance of Precip.
Yesterday
High -- | Low -- °F
Precip. -- in
6:44 AM 4:54 PM
Waning Crescent, 3% visible
Pressure 30.21 in
Visibility 0.5 miles
Clouds Mostly Cloudy 4200 ft
Overcast 5000 ft
Windchill 50 °F
Dew Point 28 °F
Humidity 44%
Rainfall 0.00 in
Snow Depth Not available.
UV 0 out of 12
Pollen .10 out of 12
Air Quality Not available.
Flu Activity Not available.
SPECI KM19 202239Z AUTO 07003KT 1/2SM HZ BKN042 OVC050 09/M01 A3021 RMK AO2

More Conditions Fewer Conditions

Pressure 30.21 in
Visibility 0.5 miles
Clouds Mostly Cloudy 4200 ft
Overcast 5000 ft
Windchill 50 °F
Dew Point 28 °F
Humidity 44%
Rainfall 0.00 in
Snow Depth Not available.
UV 0 out of 12
Pollen .10 out of 12
Air Quality Not available.
Flu Activity Not available.
SPECI KM19 202239Z AUTO 07003KT 1/2SM HZ BKN042 OVC050 09/M01 A3021 RMK AO2

More Conditions Fewer Conditions

10-Day Weather Forecast

Almanac

Astronomy

Nov. 20, 2014 Rise Set
Actual Time
Civil Twilight
Nautical Twilight
Astronomical Twilight
Moon
Length of Visible Light
Length of Day
Tomorrow will be .
, % of the Moon is Illuminated

Today's Extremes

State Highs State Lows

Community

WunderPhotos

Upload Photos

1,772,545 photos uploaded!

WunderBlogs® & News

Nearby

Air Quality

  Air Quality AQ Index Pollutant
Not available.

Snow Depth

Station Depth Elevation

Earthquake Activity

City Distance Mag. Time & Date
Minimum magnitude displayed is 2.5.

Coastal Water Temperatures

Place Temperature

Nearby Weather Stations